createdAt,value
2022-08-27T00:00:13.886Z,25.33
2022-08-27T00:02:41.574Z,25.29
2022-08-27T00:05:09.569Z,25.24
2022-08-27T00:07:36.470Z,25.18
2022-08-27T00:10:04.630Z,25.13
2022-08-27T00:12:31.483Z,25.07
2022-08-27T00:14:59.149Z,25.03
2022-08-27T00:17:26.517Z,24.96
2022-08-27T00:19:53.414Z,24.92
2022-08-27T00:22:22.785Z,24.86
2022-08-27T00:24:49.938Z,24.81
2022-08-27T00:27:16.949Z,24.79
2022-08-27T00:29:44.103Z,24.74
2022-08-27T00:32:11.498Z,24.72
2022-08-27T00:34:38.406Z,24.71
2022-08-27T00:37:06.962Z,24.69
2022-08-27T00:39:34.747Z,24.68
2022-08-27T00:42:01.611Z,24.63
2022-08-27T00:44:28.800Z,24.67
2022-08-27T00:46:59.354Z,24.66
2022-08-27T00:49:43.763Z,24.68
2022-08-27T00:52:20.673Z,24.66
2022-08-27T00:54:48.267Z,24.65
2022-08-27T00:57:15.623Z,24.66
2022-08-27T00:59:42.739Z,24.66
2022-08-27T01:02:18.981Z,24.65
2022-08-27T01:04:48.738Z,24.63
2022-08-27T01:07:16.054Z,24.62
2022-08-27T01:09:43.435Z,24.61
2022-08-27T01:12:11.431Z,24.57
2022-08-27T01:14:39.959Z,24.52
2022-08-27T01:17:09.056Z,24.53
2022-08-27T01:19:39.299Z,24.60
2022-08-27T01:22:09.252Z,24.53
2022-08-27T01:24:48.643Z,24.50
2022-08-27T01:27:20.737Z,24.45
2022-08-27T01:29:48.633Z,24.40
2022-08-27T01:32:17.548Z,24.47
2022-08-27T01:34:45.008Z,24.44
2022-08-27T01:37:13.470Z,24.41
2022-08-27T01:39:41.313Z,24.41
2022-08-27T01:42:09.892Z,24.36
2022-08-27T01:44:49.434Z,24.32
2022-08-27T01:47:17.884Z,24.35
2022-08-27T01:49:45.389Z,24.29
2022-08-27T01:52:12.604Z,24.25
2022-08-27T01:54:39.477Z,24.25
2022-08-27T01:57:06.850Z,24.27
2022-08-27T01:59:39.477Z,24.26
2022-08-27T02:02:07.778Z,24.27
2022-08-27T02:04:34.743Z,24.22
2022-08-27T02:07:01.568Z,24.21
2022-08-27T02:09:29.053Z,24.18
2022-08-27T02:11:55.912Z,24.18
2022-08-27T02:14:23.297Z,24.15
2022-08-27T02:16:52.582Z,24.15
2022-08-27T02:19:20.364Z,24.15
2022-08-27T02:21:47.527Z,24.11
2022-08-27T02:24:14.936Z,24.10
2022-08-27T02:26:42.163Z,24.07
2022-08-27T02:29:09.581Z,24.03
2022-08-27T02:31:37.131Z,24.00
2022-08-27T02:34:04.560Z,23.95
2022-08-27T02:36:31.570Z,23.90
2022-08-27T02:38:59.678Z,23.86
2022-08-27T02:41:27.546Z,23.82
2022-08-27T02:43:54.406Z,23.78
2022-08-27T02:46:21.569Z,23.74
2022-08-27T02:48:48.539Z,23.72
2022-08-27T02:51:15.431Z,23.72
2022-08-27T02:53:44.056Z,23.67
2022-08-27T02:56:12.651Z,23.60
2022-08-27T02:58:41.507Z,23.58
2022-08-27T03:01:13.672Z,23.55
2022-08-27T03:03:41.956Z,23.52
2022-08-27T03:06:09.124Z,23.50
2022-08-27T03:08:51.980Z,23.50
2022-08-27T03:11:23.176Z,23.49
2022-08-27T03:13:50.140Z,23.51
2022-08-27T03:16:17.086Z,23.52
2022-08-27T03:18:44.491Z,23.55
2022-08-27T03:21:16.676Z,23.54
2022-08-27T03:23:43.934Z,23.52
2022-08-27T03:26:11.681Z,23.49
2022-08-27T03:28:38.733Z,23.46
2022-08-27T03:31:07.904Z,23.41
2022-08-27T03:33:36.782Z,23.37
2022-08-27T03:36:04.461Z,23.36
2022-08-27T03:38:31.944Z,23.34
2022-08-27T03:40:58.970Z,23.33
2022-08-27T03:43:25.828Z,23.31
2022-08-27T03:46:01.370Z,23.27
2022-08-27T03:48:32.903Z,23.23
2022-08-27T03:51:05.286Z,23.19
2022-08-27T03:53:32.363Z,23.17
2022-08-27T03:55:59.229Z,23.15
2022-08-27T03:58:26.464Z,23.11
2022-08-27T04:00:53.477Z,23.12
2022-08-27T04:03:20.326Z,23.09
2022-08-27T04:05:51.864Z,23.08
2022-08-27T04:08:19.075Z,23.00
2022-08-27T04:10:46.590Z,23.04
2022-08-27T04:13:13.833Z,23.03
2022-08-27T04:15:44.739Z,22.99
2022-08-27T04:18:12.740Z,22.98
2022-08-27T04:20:39.961Z,22.98
2022-08-27T04:23:07.001Z,22.98
2022-08-27T04:25:33.979Z,22.96
2022-08-27T04:28:01.141Z,22.97
2022-08-27T04:30:28.059Z,23.00
2022-08-27T04:32:54.971Z,23.03
2022-08-27T04:35:22.242Z,23.08
2022-08-27T04:37:49.099Z,23.12
2022-08-27T04:40:16.148Z,23.21
2022-08-27T04:42:44.156Z,23.30
2022-08-27T04:45:11.183Z,23.39
2022-08-27T04:47:38.069Z,23.50
2022-08-27T04:50:05.825Z,23.64
2022-08-27T04:52:32.748Z,23.83
2022-08-27T04:55:00.044Z,24.09
2022-08-27T04:57:27.961Z,24.29
2022-08-27T04:59:55.034Z,24.45
2022-08-27T05:02:21.923Z,24.59
2022-08-27T05:04:49.130Z,24.72
2022-08-27T05:07:16.024Z,24.89
2022-08-27T05:09:42.878Z,25.07
2022-08-27T05:12:10.015Z,25.26
2022-08-27T05:14:37.092Z,25.37
2022-08-27T05:17:04.049Z,25.49
2022-08-27T05:19:31.470Z,25.60
2022-08-27T05:21:58.489Z,25.69
2022-08-27T05:24:25.354Z,25.76
2022-08-27T05:27:37.171Z,25.71
2022-08-27T05:30:04.486Z,25.68
2022-08-27T05:32:31.494Z,25.66
2022-08-27T05:34:58.565Z,25.61
2022-08-27T05:37:25.726Z,25.78
2022-08-27T05:39:52.855Z,25.82
2022-08-27T05:42:19.866Z,25.96
2022-08-27T05:44:47.094Z,26.04
2022-08-27T05:47:13.964Z,26.00
2022-08-27T05:49:40.865Z,26.08
2022-08-27T05:52:09.558Z,25.98
2022-08-27T05:54:36.735Z,26.14
2022-08-27T05:57:03.773Z,26.11
2022-08-27T05:59:49.679Z,26.09
2022-08-27T06:02:16.731Z,26.48
2022-08-27T06:04:47.295Z,26.42
2022-08-27T06:07:15.595Z,26.95
2022-08-27T06:09:43.551Z,26.92
2022-08-27T06:12:10.854Z,26.69
2022-08-27T06:14:39.526Z,26.83
2022-08-27T06:17:06.679Z,26.69
2022-08-27T06:19:34.941Z,26.64
2022-08-27T06:22:09.887Z,27.10
2022-08-27T06:24:39.760Z,28.28
2022-08-27T06:27:06.780Z,28.65
2022-08-27T06:29:35.299Z,29.32
2022-08-27T06:32:02.821Z,28.70
2022-08-27T06:34:29.953Z,28.42
2022-08-27T06:36:57.052Z,28.43
2022-08-27T06:39:24.622Z,28.72
2022-08-27T06:41:51.578Z,29.25
2022-08-27T06:44:22.228Z,29.13
2022-08-27T06:46:49.451Z,29.02
2022-08-27T06:49:16.566Z,28.82
2022-08-27T06:51:45.961Z,28.54
2022-08-27T06:54:13.989Z,28.48
2022-08-27T06:56:41.762Z,28.48
2022-08-27T06:59:11.422Z,28.64
2022-08-27T07:01:41.875Z,29.44
2022-08-27T07:04:10.432Z,29.36
2022-08-27T07:06:37.791Z,29.94
2022-08-27T07:09:05.895Z,30.63
2022-08-27T07:11:33.251Z,31.15
2022-08-27T07:14:00.583Z,31.54
2022-08-27T07:16:33.935Z,31.68
2022-08-27T07:19:03.697Z,31.42
2022-08-27T07:21:33.519Z,31.04
2022-08-27T07:24:04.960Z,31.34
2022-08-27T07:26:42.058Z,31.48
2022-08-27T07:29:17.910Z,31.43
2022-08-27T07:31:47.795Z,31.08
2022-08-27T07:34:19.705Z,30.58
2022-08-27T07:36:47.273Z,29.87
2022-08-27T07:39:16.778Z,29.74
2022-08-27T07:42:03.893Z,29.69
2022-08-27T07:44:34.443Z,29.83
2022-08-27T07:47:02.212Z,29.95
2022-08-27T07:49:29.562Z,30.01
2022-08-27T07:51:57.100Z,29.90
2022-08-27T07:54:25.376Z,30.04
2022-08-27T07:56:55.379Z,30.20
2022-08-27T07:59:24.355Z,30.48
2022-08-27T08:01:51.896Z,30.69
2022-08-27T08:04:20.517Z,30.83
2022-08-27T08:06:48.625Z,31.14
2022-08-27T08:09:15.803Z,31.42
2022-08-27T08:11:42.823Z,31.64
2022-08-27T08:14:10.016Z,31.76
2022-08-27T08:16:36.895Z,31.53
2022-08-27T08:19:03.770Z,31.40
2022-08-27T08:21:30.991Z,31.10
2022-08-27T08:23:58.147Z,30.98
2022-08-27T08:26:25.046Z,30.63
2022-08-27T08:28:52.228Z,30.34
2022-08-27T08:31:19.175Z,30.19
2022-08-27T08:33:48.184Z,30.05
2022-08-27T08:36:16.132Z,29.75
2022-08-27T08:38:43.611Z,29.49
2022-08-27T08:41:20.605Z,28.94
2022-08-27T08:43:51.769Z,28.54
2022-08-27T08:46:24.888Z,28.32
2022-08-27T08:48:56.123Z,28.58
2022-08-27T08:51:32.977Z,28.84
2022-08-27T08:54:03.162Z,28.97
2022-08-27T08:56:36.269Z,29.15
2022-08-27T08:59:15.745Z,29.06
2022-08-27T09:01:45.547Z,29.43
2022-08-27T09:04:13.310Z,29.51
2022-08-27T09:06:59.044Z,29.39
2022-08-27T09:09:37.965Z,29.50
2022-08-27T09:12:16.588Z,29.71
2022-08-27T09:15:05.761Z,30.06
2022-08-27T09:17:33.606Z,30.17
2022-08-27T09:20:00.903Z,30.20
2022-08-27T09:22:49.008Z,30.27
2022-08-27T09:25:20.700Z,29.97
2022-08-27T09:27:48.910Z,29.69
2022-08-27T09:30:21.822Z,29.51
2022-08-27T09:32:57.814Z,29.44
2022-08-27T09:35:27.283Z,29.55
2022-08-27T09:37:55.505Z,29.80
2022-08-27T09:40:32.293Z,29.89
2022-08-27T09:43:07.466Z,30.10
2022-08-27T09:45:34.954Z,30.23
2022-08-27T09:48:04.576Z,30.34
2022-08-27T09:50:35.331Z,30.51
2022-08-27T09:53:03.311Z,30.64
2022-08-27T09:55:43.790Z,30.69
2022-08-27T09:58:22.759Z,30.79
2022-08-27T10:00:57.869Z,30.84
2022-08-27T10:03:26.535Z,30.74
2022-08-27T10:05:56.593Z,30.58
2022-08-27T10:08:25.288Z,30.47
2022-08-27T10:10:57.048Z,30.35
2022-08-27T10:13:27.787Z,30.24
2022-08-27T10:15:54.888Z,30.13
2022-08-27T10:18:38.677Z,30.07
2022-08-27T10:21:11.760Z,30.06
2022-08-27T10:23:45.803Z,29.99
2022-08-27T10:26:14.014Z,30.00
2022-08-27T10:28:44.758Z,29.96
2022-08-27T10:31:25.022Z,29.95
2022-08-27T10:34:01.496Z,29.99
2022-08-27T10:36:48.942Z,30.03
2022-08-27T10:39:22.785Z,30.06
2022-08-27T10:41:54.668Z,30.05
2022-08-27T10:44:21.868Z,30.07
2022-08-27T10:47:14.525Z,30.14
2022-08-27T10:49:47.478Z,30.16
2022-08-27T10:52:14.790Z,30.12
2022-08-27T10:54:51.492Z,30.08
2022-08-27T10:57:45.494Z,30.10
2022-08-27T11:00:17.400Z,30.13
2022-08-27T11:02:47.794Z,30.10
2022-08-27T11:05:20.688Z,30.04
2022-08-27T11:07:51.471Z,30.04
2022-08-27T11:10:25.413Z,30.02
2022-08-27T11:12:54.160Z,29.93
2022-08-27T11:15:24.835Z,29.92
2022-08-27T11:17:58.761Z,29.91
2022-08-27T11:20:31.108Z,29.71
2022-08-27T11:22:58.094Z,29.68
2022-08-27T11:25:32.602Z,29.68
2022-08-27T11:28:00.498Z,29.71
2022-08-27T11:30:31.607Z,29.65
2022-08-27T11:33:06.683Z,29.63
2022-08-27T11:36:01.173Z,29.64
2022-08-27T11:38:28.069Z,29.67
2022-08-27T11:40:55.436Z,29.67
2022-08-27T11:43:24.808Z,29.70
2022-08-27T11:45:57.544Z,29.71
2022-08-27T11:48:32.640Z,29.73
2022-08-27T11:51:07.243Z,29.75
2022-08-27T11:53:52.517Z,29.74
2022-08-27T11:56:36.882Z,29.74
2022-08-27T11:59:23.426Z,29.70
2022-08-27T12:01:52.499Z,29.72
2022-08-27T12:04:40.122Z,29.71
2022-08-27T12:07:21.806Z,29.69
2022-08-27T12:09:51.678Z,29.70
2022-08-27T12:12:30.921Z,29.72
2022-08-27T12:15:36.494Z,29.72
2022-08-27T12:18:03.404Z,29.70
2022-08-27T12:20:51.970Z,29.67
2022-08-27T12:23:44.744Z,29.66
2022-08-27T12:26:35.440Z,29.63
2022-08-27T12:29:21.102Z,29.62
2022-08-27T12:32:03.449Z,29.64
2022-08-27T12:34:31.891Z,29.64
2022-08-27T12:37:01.779Z,29.63
2022-08-27T12:39:38.260Z,29.62
2022-08-27T12:42:12.485Z,29.63
2022-08-27T12:44:39.999Z,29.64
2022-08-27T12:47:10.549Z,29.65
2022-08-27T12:49:41.968Z,29.66
2022-08-27T12:52:20.283Z,29.66
2022-08-27T12:54:50.182Z,29.68
2022-08-27T12:57:20.446Z,29.65
2022-08-27T12:59:47.372Z,29.61
2022-08-27T13:02:23.443Z,29.58
2022-08-27T13:04:51.510Z,29.56
2022-08-27T13:07:33.007Z,29.56
2022-08-27T13:10:09.634Z,29.59
2022-08-27T13:12:36.474Z,29.58
2022-08-27T13:15:10.908Z,29.60
2022-08-27T13:17:43.705Z,29.62
2022-08-27T13:20:15.300Z,29.67
2022-08-27T13:22:43.775Z,29.67
2022-08-27T13:25:39.638Z,29.70
2022-08-27T13:28:11.761Z,29.74
2022-08-27T13:30:44.737Z,29.73
2022-08-27T13:33:17.499Z,29.70
2022-08-27T13:35:52.649Z,29.75
2022-08-27T13:38:21.884Z,29.72
2022-08-27T13:40:59.993Z,29.75
2022-08-27T13:43:33.335Z,29.71
2022-08-27T13:46:03.292Z,29.70
2022-08-27T13:48:30.529Z,29.74
2022-08-27T13:50:57.998Z,29.74
2022-08-27T13:53:48.998Z,29.74
2022-08-27T13:56:25.451Z,29.68
2022-08-27T13:58:52.387Z,29.67
2022-08-27T14:01:28.091Z,29.65
2022-08-27T14:04:00.554Z,29.66
2022-08-27T14:06:42.573Z,29.67
2022-08-27T14:09:17.995Z,29.67
2022-08-27T14:11:45.783Z,29.67
2022-08-27T14:14:13.088Z,29.67
2022-08-27T14:16:40.434Z,29.67
2022-08-27T14:19:07.690Z,29.65
2022-08-27T14:21:36.017Z,29.64
2022-08-27T14:24:03.278Z,29.63
2022-08-27T14:26:30.704Z,29.66
2022-08-27T14:28:57.691Z,29.65
2022-08-27T14:31:25.117Z,29.70
2022-08-27T14:33:54.535Z,29.68
2022-08-27T14:36:22.987Z,29.69
2022-08-27T14:38:51.174Z,29.65
2022-08-27T14:41:21.569Z,29.66
2022-08-27T14:43:49.330Z,29.60
2022-08-27T14:46:24.045Z,29.57
2022-08-27T14:48:53.722Z,29.56
2022-08-27T14:51:23.956Z,29.52
2022-08-27T14:53:51.744Z,29.49
2022-08-27T14:56:20.008Z,29.36
2022-08-27T14:58:47.174Z,29.35
2022-08-27T15:01:14.519Z,29.30
2022-08-27T15:03:47.418Z,29.25
2022-08-27T15:06:14.940Z,29.21
2022-08-27T15:08:42.243Z,29.17
2022-08-27T15:11:18.726Z,29.18
2022-08-27T15:13:46.119Z,29.15
2022-08-27T15:16:14.711Z,29.14
2022-08-27T15:18:41.618Z,29.12
2022-08-27T15:21:08.796Z,29.06
2022-08-27T15:23:37.283Z,29.05
2022-08-27T15:26:04.203Z,29.03
2022-08-27T15:28:31.409Z,29.04
2022-08-27T15:30:59.700Z,29.02
2022-08-27T15:33:26.768Z,29.03
2022-08-27T15:35:54.461Z,28.95
2022-08-27T15:38:21.407Z,28.88
2022-08-27T15:40:48.289Z,28.90
2022-08-27T15:43:16.871Z,28.82
2022-08-27T15:45:45.462Z,28.80
2022-08-27T15:48:15.288Z,28.76
2022-08-27T15:50:42.696Z,28.72
2022-08-27T15:53:09.982Z,28.71
2022-08-27T15:55:38.235Z,28.70
2022-08-27T15:58:05.945Z,28.72
2022-08-27T16:00:33.862Z,28.74
2022-08-27T16:03:03.981Z,28.77
2022-08-27T16:05:33.800Z,28.83
2022-08-27T16:08:00.698Z,28.88
2022-08-27T16:10:27.952Z,28.92
2022-08-27T16:12:55.235Z,28.98
2022-08-27T16:15:22.286Z,29.02
2022-08-27T16:17:52.958Z,29.10
2022-08-27T16:20:21.443Z,29.17
2022-08-27T16:22:48.734Z,29.19
2022-08-27T16:25:20.669Z,29.20
2022-08-27T16:27:48.017Z,29.19
2022-08-27T16:30:15.476Z,29.19
2022-08-27T16:32:46.635Z,29.17
2022-08-27T16:35:15.553Z,29.13
2022-08-27T16:37:42.883Z,29.11
2022-08-27T16:40:11.614Z,29.13
2022-08-27T16:42:39.992Z,29.11
2022-08-27T16:45:08.220Z,29.11
2022-08-27T16:47:56.366Z,29.06
2022-08-27T16:50:35.912Z,28.98
2022-08-27T16:53:07.076Z,28.93
2022-08-27T16:55:34.320Z,28.87
2022-08-27T16:58:01.421Z,28.82
2022-08-27T17:00:30.047Z,28.75
2022-08-27T17:02:57.931Z,28.66
2022-08-27T17:05:34.021Z,28.58
2022-08-27T17:08:02.484Z,28.47
2022-08-27T17:10:44.852Z,28.40
2022-08-27T17:13:16.408Z,28.32
2022-08-27T17:15:43.368Z,28.26
2022-08-27T17:18:10.837Z,28.22
2022-08-27T17:20:38.877Z,28.16
2022-08-27T17:23:06.741Z,28.10
2022-08-27T17:25:34.019Z,28.05
2022-08-27T17:28:01.134Z,28.01
2022-08-27T17:30:28.346Z,27.95
2022-08-27T17:32:55.218Z,27.90
2022-08-27T17:35:24.426Z,27.87
2022-08-27T17:37:51.336Z,27.81
2022-08-27T17:40:18.245Z,27.81
2022-08-27T17:42:45.563Z,27.75
2022-08-27T17:45:18.725Z,27.72
2022-08-27T17:47:55.142Z,27.68
2022-08-27T17:50:24.785Z,27.64
2022-08-27T17:52:58.939Z,27.61
2022-08-27T17:55:31.774Z,27.59
2022-08-27T17:58:01.640Z,27.57
2022-08-27T18:00:28.681Z,27.56
2022-08-27T18:02:57.843Z,27.53
2022-08-27T18:05:28.439Z,27.51
2022-08-27T18:08:04.377Z,27.48
2022-08-27T18:10:35.437Z,27.46
2022-08-27T18:13:02.567Z,27.41
2022-08-27T18:15:33.260Z,27.41
2022-08-27T18:18:03.376Z,27.38
2022-08-27T18:20:34.383Z,27.37
2022-08-27T18:23:04.942Z,27.36
2022-08-27T18:25:35.960Z,27.34
2022-08-27T18:28:07.027Z,27.32
2022-08-27T18:30:39.696Z,27.29
2022-08-27T18:33:07.442Z,27.29
2022-08-27T18:35:34.878Z,27.25
2022-08-27T18:38:01.998Z,27.21
2022-08-27T18:40:31.762Z,27.14
2022-08-27T18:42:58.924Z,27.09
2022-08-27T18:45:28.448Z,27.01
2022-08-27T18:47:57.473Z,26.94
2022-08-27T18:50:24.886Z,26.85
2022-08-27T18:52:53.144Z,26.78
2022-08-27T18:55:22.849Z,26.73
2022-08-27T18:57:49.736Z,26.69
2022-08-27T19:00:19.108Z,26.67
2022-08-27T19:02:51.433Z,26.65
2022-08-27T19:05:20.769Z,26.61
2022-08-27T19:07:47.965Z,26.56
2022-08-27T19:10:16.107Z,26.49
2022-08-27T19:12:43.566Z,26.45
2022-08-27T19:15:12.054Z,26.41
2022-08-27T19:17:40.206Z,26.37
2022-08-27T19:20:07.505Z,26.35
2022-08-27T19:22:34.717Z,26.31
2022-08-27T19:25:01.608Z,26.26
2022-08-27T19:27:30.782Z,26.21
2022-08-27T19:29:58.133Z,26.14
2022-08-27T19:32:25.131Z,26.09
2022-08-27T19:35:16.655Z,26.05
2022-08-27T19:37:46.387Z,26.03
2022-08-27T19:40:21.991Z,25.98
2022-08-27T19:42:49.556Z,25.92
2022-08-27T19:45:23.209Z,25.83
2022-08-27T19:47:52.367Z,25.81
2022-08-27T19:50:19.409Z,25.81
2022-08-27T19:52:47.499Z,25.78
2022-08-27T19:55:14.970Z,25.78
2022-08-27T19:57:42.569Z,25.75
2022-08-27T20:00:10.485Z,25.70
2022-08-27T20:02:38.324Z,25.64
2022-08-27T20:05:21.305Z,25.61
2022-08-27T20:07:49.976Z,25.57
2022-08-27T20:10:18.153Z,25.54
2022-08-27T20:12:45.335Z,25.50
2022-08-27T20:15:12.770Z,25.47
2022-08-27T20:17:40.343Z,25.45
2022-08-27T20:20:08.159Z,25.44
2022-08-27T20:22:35.288Z,25.42
2022-08-27T20:25:02.342Z,25.36
2022-08-27T20:27:30.372Z,25.31
2022-08-27T20:29:57.782Z,25.27
2022-08-27T20:32:29.670Z,25.21
2022-08-27T20:34:57.552Z,25.20
2022-08-27T20:37:24.582Z,25.20
2022-08-27T20:39:52.708Z,25.17
2022-08-27T20:42:20.270Z,25.14
2022-08-27T20:44:47.715Z,25.13
2022-08-27T20:47:15.615Z,25.12
2022-08-27T20:49:44.720Z,25.09
2022-08-27T20:52:13.049Z,25.05
2022-08-27T20:54:40.360Z,25.05
2022-08-27T20:57:08.882Z,25.04
2022-08-27T20:59:54.354Z,25.06
2022-08-27T21:02:23.400Z,25.09
2022-08-27T21:04:51.036Z,25.06
2022-08-27T21:07:18.787Z,25.08
2022-08-27T21:09:55.908Z,25.11
2022-08-27T21:12:25.659Z,25.13
2022-08-27T21:14:55.768Z,25.15
2022-08-27T21:17:24.439Z,25.15
2022-08-27T21:19:52.567Z,25.15
2022-08-27T21:22:20.428Z,25.16
2022-08-27T21:24:47.734Z,25.14
2022-08-27T21:27:15.146Z,25.11
2022-08-27T21:29:44.638Z,25.05
2022-08-27T21:32:13.148Z,25.00
2022-08-27T21:34:41.804Z,24.93
2022-08-27T21:37:11.020Z,24.88
2022-08-27T21:39:38.439Z,24.83
2022-08-27T21:42:05.550Z,24.75
2022-08-27T21:44:32.671Z,24.67
2022-08-27T21:47:00.844Z,24.61
2022-08-27T21:49:28.056Z,24.54
2022-08-27T21:51:55.171Z,24.51
2022-08-27T21:54:23.503Z,24.46
2022-08-27T21:56:53.033Z,24.43
2022-08-27T21:59:20.326Z,24.40
2022-08-27T22:01:48.947Z,24.37
2022-08-27T22:04:17.477Z,24.35
2022-08-27T22:06:44.790Z,24.33
2022-08-27T22:09:11.567Z,24.27
2022-08-27T22:11:41.715Z,24.25
2022-08-27T22:14:11.957Z,24.21
2022-08-27T22:16:39.250Z,24.19
2022-08-27T22:19:06.197Z,24.17
2022-08-27T22:21:34.411Z,24.16
2022-08-27T22:24:01.211Z,24.15
2022-08-27T22:26:27.976Z,24.14
2022-08-27T22:28:55.096Z,24.15
2022-08-27T22:31:22.005Z,24.17
2022-08-27T22:33:48.930Z,24.20
2022-08-27T22:36:16.240Z,24.26
2022-08-27T22:38:43.115Z,24.22
2022-08-27T22:41:10.016Z,24.16
2022-08-27T22:43:37.590Z,24.17
2022-08-27T22:46:04.625Z,24.16
2022-08-27T22:48:31.500Z,24.11
2022-08-27T22:50:58.948Z,24.18
2022-08-27T22:53:26.126Z,24.06
2022-08-27T22:55:52.994Z,23.80
2022-08-27T22:58:24.404Z,23.28
2022-08-27T23:00:52.578Z,22.65
2022-08-27T23:03:20.302Z,22.17
2022-08-27T23:05:47.217Z,21.71
2022-08-27T23:08:14.338Z,21.24
2022-08-27T23:10:42.371Z,20.95
2022-08-27T23:13:10.046Z,20.72
2022-08-27T23:15:37.641Z,20.58
2022-08-27T23:18:04.785Z,20.56
2022-08-27T23:20:31.672Z,20.51
2022-08-27T23:22:58.671Z,20.48
2022-08-27T23:25:44.157Z,20.43
2022-08-27T23:28:14.673Z,20.39
2022-08-27T23:30:42.937Z,20.38
2022-08-27T23:33:09.786Z,20.37
2022-08-27T23:35:36.927Z,20.31
2022-08-27T23:38:04.352Z,20.29
2022-08-27T23:40:31.339Z,20.32
2022-08-27T23:42:58.196Z,20.38
2022-08-27T23:45:26.030Z,20.42
2022-08-27T23:47:53.019Z,20.45
2022-08-27T23:50:20.171Z,20.49
2022-08-27T23:52:49.010Z,20.53
2022-08-27T23:55:16.073Z,20.54
2022-08-27T23:57:43.241Z,20.54
